sensor_id;sensor_type;location;lat;lon;timestamp;pressure;altitude;pressure_sealevel;temperature;humidity
13553;BME280;6847;48.830;9.116;2024-01-15T00:02:20;96881.47;;;1.85;55.69
13553;BME280;6847;48.830;9.116;2024-01-15T00:04:46;96874.91;;;1.76;55.47
13553;BME280;6847;48.830;9.116;2024-01-15T00:07:13;96828.25;;;1.40;56.10
13553;BME280;6847;48.830;9.116;2024-01-15T00:09:44;96854.28;;;1.50;55.79
13553;BME280;6847;48.830;9.116;2024-01-15T00:12:10;96867.84;;;1.48;56.04
13553;BME280;6847;48.830;9.116;2024-01-15T00:14:39;96813.59;;;1.04;56.24
13553;BME280;6847;48.830;9.116;2024-01-15T00:17:06;96776.28;;;0.71;56.05
13553;BME280;6847;48.830;9.116;2024-01-15T00:19:32;96615.38;;;-0.33;56.16
13553;BME280;6847;48.830;9.116;2024-01-15T00:21:59;96801.47;;;0.80;56.48
13553;BME280;6847;48.830;9.116;2024-01-15T00:24:28;96723.91;;;0.26;56.04
13553;BME280;6847;48.830;9.116;2024-01-15T00:26:56;96843.41;;;1.01;56.58
13553;BME280;6847;48.830;9.116;2024-01-15T00:29:22;96838.00;;;0.96;56.11
13553;BME280;6847;48.830;9.116;2024-01-15T00:31:50;96821.16;;;0.79;56.38
13553;BME280;6847;48.830;9.116;2024-01-15T00:34:19;96749.56;;;0.32;56.80
13553;BME280;6847;48.830;9.116;2024-01-15T00:36:47;96709.28;;;0.12;56.33
13553;BME280;6847;48.830;9.116;2024-01-15T00:39:16;96717.50;;;0.11;56.47
13553;BME280;6847;48.830;9.116;2024-01-15T00:41:44;96842.19;;;0.92;56.42
13553;BME280;6847;48.830;9.116;2024-01-15T00:44:12;96788.31;;;0.57;56.53
13553;BME280;6847;48.830;9.116;2024-01-15T00:46:43;96850.28;;;0.97;56.31
13553;BME280;6847;48.830;9.116;2024-01-15T00:49:14;96790.50;;;0.60;56.40
13553;BME280;6847;48.830;9.116;2024-01-15T00:51:41;96861.66;;;1.09;56.49
13553;BME280;6847;48.830;9.116;2024-01-15T00:54:07;96867.66;;;1.17;56.13
13553;BME280;6847;48.830;9.116;2024-01-15T00:56:34;96838.22;;;1.11;55.89
13553;BME280;6847;48.830;9.116;2024-01-15T00:59:03;96753.88;;;0.67;56.54
13553;BME280;6847;48.830;9.116;2024-01-15T01:01:32;96859.78;;;1.43;56.43
13553;BME280;6847;48.830;9.116;2024-01-15T01:03:59;96855.09;;;1.51;56.25
13553;BME280;6847;48.830;9.116;2024-01-15T01:06:28;96819.41;;;1.35;55.99
13553;BME280;6847;48.830;9.116;2024-01-15T01:08:56;96832.94;;;1.50;56.10
13553;BME280;6847;48.830;9.116;2024-01-15T01:11:23;96745.28;;;0.98;56.31
13553;BME280;6847;48.830;9.116;2024-01-15T01:13:50;96827.75;;;1.60;55.99
13553;BME280;6847;48.830;9.116;2024-01-15T01:16:16;96814.66;;;1.59;55.99
13553;BME280;6847;48.830;9.116;2024-01-15T01:18:44;96651.06;;;0.66;56.48
13553;BME280;6847;48.830;9.116;2024-01-15T01:21:11;96822.88;;;1.74;55.77
13553;BME280;6847;48.830;9.116;2024-01-15T01:23:37;96671.50;;;0.82;55.83
13553;BME280;6847;48.830;9.116;2024-01-15T01:26:04;96728.59;;;1.25;55.75
13553;BME280;6847;48.830;9.116;2024-01-15T01:28:30;96844.34;;;2.06;55.90
13553;BME280;6847;48.830;9.116;2024-01-15T01:30:57;96640.59;;;0.81;55.87
13553;BME280;6847;48.830;9.116;2024-01-15T01:33:24;96820.25;;;2.01;56.12
13553;BME280;6847;48.830;9.116;2024-01-15T01:35:54;96702.91;;;1.19;56.38
13553;BME280;6847;48.830;9.116;2024-01-15T01:38:24;96829.56;;;1.98;56.08
13553;BME280;6847;48.830;9.116;2024-01-15T01:40:53;96682.78;;;1.06;55.66
13553;BME280;6847;48.830;9.116;2024-01-15T01:43:19;96632.31;;;0.78;56.29
13553;BME280;6847;48.830;9.116;2024-01-15T01:45:46;96689.28;;;1.15;56.03
13553;BME280;6847;48.830;9.116;2024-01-15T01:48:15;96608.25;;;0.72;56.40
13553;BME280;6847;48.830;9.116;2024-01-15T01:50:42;96568.78;;;0.48;56.21
13553;BME280;6847;48.830;9.116;2024-01-15T01:53:10;96848.06;;;2.27;56.10
13553;BME280;6847;48.830;9.116;2024-01-15T01:55:39;96758.75;;;1.69;56.43
13553;BME280;6847;48.830;9.116;2024-01-15T01:58:06;96846.44;;;2.26;56.75
13553;BME280;6847;48.830;9.116;2024-01-15T02:00:33;96710.09;;;1.35;56.52
13553;BME280;6847;48.830;9.116;2024-01-15T02:03:00;96843.41;;;2.17;56.32
13553;BME280;6847;48.830;9.116;2024-01-15T02:05:31;96824.06;;;2.05;56.15
13553;BME280;6847;48.830;9.116;2024-01-15T02:07:58;96784.50;;;1.80;56.40
13553;BME280;6847;48.830;9.116;2024-01-15T02:10:26;96757.91;;;1.63;56.35
13553;BME280;6847;48.830;9.116;2024-01-15T02:12:55;96833.13;;;2.04;56.23
13553;BME280;6847;48.830;9.116;2024-01-15T02:15:22;96788.78;;;1.81;56.36
13553;BME280;6847;48.830;9.116;2024-01-15T02:17:58;96797.94;;;1.85;56.93
13553;BME280;6847;48.830;9.116;2024-01-15T02:20:25;96682.59;;;1.13;56.38
13553;BME280;6847;48.830;9.116;2024-01-15T02:22:52;96835.84;;;2.09;56.44
13553;BME280;6847;48.830;9.116;2024-01-15T02:25:23;96799.56;;;1.86;56.50
13553;BME280;6847;48.830;9.116;2024-01-15T02:27:54;96742.00;;;1.52;56.96
13553;BME280;6847;48.830;9.116;2024-01-15T02:30:25;96806.78;;;1.91;56.75
13553;BME280;6847;48.830;9.116;2024-01-15T02:32:55;96716.94;;;1.31;56.79
13553;BME280;6847;48.830;9.116;2024-01-15T02:35:24;96801.34;;;1.80;56.59
13553;BME280;6847;48.830;9.116;2024-01-15T02:37:54;96826.53;;;1.90;56.42
13553;BME280;6847;48.830;9.116;2024-01-15T02:40:20;96827.53;;;1.83;56.59
13553;BME280;6847;48.830;9.116;2024-01-15T02:42:53;96742.56;;;1.32;56.71
13553;BME280;6847;48.830;9.116;2024-01-15T02:45:21;96823.16;;;1.77;57.28
13553;BME280;6847;48.830;9.116;2024-01-15T02:47:48;96771.53;;;1.45;56.93
13553;BME280;6847;48.830;9.116;2024-01-15T02:50:15;96811.38;;;1.73;56.80
13553;BME280;6847;48.830;9.116;2024-01-15T02:52:42;96815.09;;;1.72;56.79
13553;BME280;6847;48.830;9.116;2024-01-15T02:55:08;96813.50;;;1.71;57.12
13553;BME280;6847;48.830;9.116;2024-01-15T02:57:40;96769.59;;;1.40;56.92
13553;BME280;6847;48.830;9.116;2024-01-15T03:00:09;96751.56;;;1.26;56.82
13553;BME280;6847;48.830;9.116;2024-01-15T03:02:37;96814.97;;;1.62;57.19
13553;BME280;6847;48.830;9.116;2024-01-15T03:05:05;96812.06;;;1.64;57.08
13553;BME280;6847;48.830;9.116;2024-01-15T03:07:34;96808.84;;;1.62;56.93
13553;BME280;6847;48.830;9.116;2024-01-15T03:10:10;96803.25;;;1.63;56.81
13553;BME280;6847;48.830;9.116;2024-01-15T03:12:42;96676.38;;;0.85;56.82
13553;BME280;6847;48.830;9.116;2024-01-15T03:15:12;96627.09;;;0.49;56.86
13553;BME280;6847;48.830;9.116;2024-01-15T03:17:38;96803.81;;;1.65;57.51
13553;BME280;6847;48.830;9.116;2024-01-15T03:20:07;96805.97;;;1.68;57.19
13553;BME280;6847;48.830;9.116;2024-01-15T03:22:33;96779.91;;;1.54;57.22
13553;BME280;6847;48.830;9.116;2024-01-15T03:25:00;96702.25;;;1.06;56.97
13553;BME280;6847;48.830;9.116;2024-01-15T03:27:26;96797.47;;;1.71;57.09
13553;BME280;6847;48.830;9.116;2024-01-15T03:29:52;96802.00;;;1.71;57.38
13553;BME280;6847;48.830;9.116;2024-01-15T03:32:23;96782.97;;;1.62;57.31
13553;BME280;6847;48.830;9.116;2024-01-15T03:34:49;96650.53;;;0.86;57.38
13553;BME280;6847;48.830;9.116;2024-01-15T03:37:17;96707.75;;;1.22;56.92
13553;BME280;6847;48.830;9.116;2024-01-15T03:39:44;96759.53;;;1.64;57.44
13553;BME280;6847;48.830;9.116;2024-01-15T03:42:11;96796.13;;;1.91;57.30
13553;BME280;6847;48.830;9.116;2024-01-15T03:44:40;96592.50;;;0.71;56.87
13553;BME280;6847;48.830;9.116;2024-01-15T03:47:09;96731.84;;;1.70;57.25
13553;BME280;6847;48.830;9.116;2024-01-15T03:49:39;96787.34;;;2.17;57.31
13553;BME280;6847;48.830;9.116;2024-01-15T03:52:05;96784.75;;;2.22;56.78
13553;BME280;6847;48.830;9.116;2024-01-15T03:54:32;96779.69;;;2.26;57.26
13553;BME280;6847;48.830;9.116;2024-01-15T03:56:58;96704.88;;;1.94;57.28
13553;BME280;6847;48.830;9.116;2024-01-15T03:59:25;96771.28;;;2.39;57.18
13553;BME280;6847;48.830;9.116;2024-01-15T04:01:51;96614.56;;;1.54;57.39
13553;BME280;6847;48.830;9.116;2024-01-15T04:04:18;96726.84;;;2.28;56.88
13553;BME280;6847;48.830;9.116;2024-01-15T04:07:04;96506.25;;;0.99;56.96
13553;BME280;6847;48.830;9.116;2024-01-15T04:09:30;96767.53;;;2.67;57.13
13553;BME280;6847;48.830;9.116;2024-01-15T04:11:57;96766.53;;;2.73;57.10
13553;BME280;6847;48.830;9.116;2024-01-15T04:14:24;96767.63;;;2.77;57.01
13553;BME280;6847;48.830;9.116;2024-01-15T04:16:55;96701.53;;;2.35;56.82
13553;BME280;6847;48.830;9.116;2024-01-15T04:19:21;96760.72;;;2.86;57.16
13553;BME280;6847;48.830;9.116;2024-01-15T04:21:49;96744.13;;;2.79;56.49
13553;BME280;6847;48.830;9.116;2024-01-15T04:24:16;96757.56;;;2.89;57.53
13553;BME280;6847;48.830;9.116;2024-01-15T04:26:43;96761.34;;;2.93;56.75
13553;BME280;6847;48.830;9.116;2024-01-15T04:29:10;96747.44;;;2.96;56.83
13553;BME280;6847;48.830;9.116;2024-01-15T04:31:37;96637.09;;;2.27;57.32
13553;BME280;6847;48.830;9.116;2024-01-15T04:34:03;96713.66;;;2.80;57.00
13553;BME280;6847;48.830;9.116;2024-01-15T04:36:30;96750.72;;;3.03;57.33
13553;BME280;6847;48.830;9.116;2024-01-15T04:38:57;96753.41;;;3.03;57.29
13553;BME280;6847;48.830;9.116;2024-01-15T04:41:26;96754.19;;;3.04;57.37
13553;BME280;6847;48.830;9.116;2024-01-15T04:43:53;96614.34;;;2.19;57.22
13553;BME280;6847;48.830;9.116;2024-01-15T04:46:19;96611.22;;;2.27;57.19
13553;BME280;6847;48.830;9.116;2024-01-15T04:48:48;96739.78;;;3.10;57.37
13553;BME280;6847;48.830;9.116;2024-01-15T04:51:19;96492.38;;;1.51;56.73
13553;BME280;6847;48.830;9.116;2024-01-15T04:53:45;96719.66;;;2.97;57.25
13553;BME280;6847;48.830;9.116;2024-01-15T04:56:12;96640.75;;;2.47;56.50
13553;BME280;6847;48.830;9.116;2024-01-15T04:58:42;96627.38;;;2.42;57.38
13553;BME280;6847;48.830;9.116;2024-01-15T05:01:12;96474.50;;;1.46;56.83
13553;BME280;6847;48.830;9.116;2024-01-15T05:03:39;96517.88;;;1.68;57.42
13553;BME280;6847;48.830;9.116;2024-01-15T05:06:06;96657.91;;;2.56;57.09
13553;BME280;6847;48.830;9.116;2024-01-15T05:08:34;96661.44;;;2.67;57.39
13553;BME280;6847;48.830;9.116;2024-01-15T05:11:00;96654.22;;;2.63;57.23
13553;BME280;6847;48.830;9.116;2024-01-15T05:13:27;96678.94;;;2.85;56.61
13553;BME280;6847;48.830;9.116;2024-01-15T05:16:02;96748.72;;;3.25;56.79
13553;BME280;6847;48.830;9.116;2024-01-15T05:18:29;96708.53;;;3.10;57.00
13553;BME280;6847;48.830;9.116;2024-01-15T05:20:55;96706.97;;;3.19;57.31
13553;BME280;6847;48.830;9.116;2024-01-15T05:23:22;96723.56;;;3.26;57.30
13553;BME280;6847;48.830;9.116;2024-01-15T05:25:48;96708.53;;;3.15;57.27
13553;BME280;6847;48.830;9.116;2024-01-15T05:28:14;96722.78;;;3.26;56.60
13553;BME280;6847;48.830;9.116;2024-01-15T05:30:41;96721.69;;;3.22;57.38
13553;BME280;6847;48.830;9.116;2024-01-15T05:33:15;96703.78;;;3.22;56.62
13553;BME280;6847;48.830;9.116;2024-01-15T05:35:45;96702.09;;;3.11;57.22
13553;BME280;6847;48.830;9.116;2024-01-15T05:38:11;96629.94;;;2.64;56.97
13553;BME280;6847;48.830;9.116;2024-01-15T05:40:38;96712.56;;;3.18;56.66
13553;BME280;6847;48.830;9.116;2024-01-15T05:43:05;96717.09;;;3.12;56.85
13553;BME280;6847;48.830;9.116;2024-01-15T05:45:34;96711.16;;;3.05;56.68
13553;BME280;6847;48.830;9.116;2024-01-15T05:48:01;96704.19;;;3.04;57.37
13553;BME280;6847;48.830;9.116;2024-01-15T05:50:29;96728.91;;;3.21;56.74
13553;BME280;6847;48.830;9.116;2024-01-15T05:52:59;96720.88;;;3.21;56.92
13553;BME280;6847;48.830;9.116;2024-01-15T05:55:26;96653.81;;;2.81;56.91
13553;BME280;6847;48.830;9.116;2024-01-15T05:57:55;96665.56;;;2.80;56.84
13553;BME280;6847;48.830;9.116;2024-01-15T06:00:24;96743.41;;;3.35;57.03
13553;BME280;6847;48.830;9.116;2024-01-15T06:02:50;96720.88;;;3.21;56.88
13553;BME280;6847;48.830;9.116;2024-01-15T06:05:18;96692.47;;;3.10;56.39
13553;BME280;6847;48.830;9.116;2024-01-15T06:07:49;96733.78;;;3.34;56.28
13553;BME280;6847;48.830;9.116;2024-01-15T06:10:21;96684.47;;;3.10;56.80
13553;BME280;6847;48.830;9.116;2024-01-15T06:12:47;96633.47;;;2.80;57.36
13553;BME280;6847;48.830;9.116;2024-01-15T06:15:14;96715.59;;;3.31;56.46
13553;BME280;6847;48.830;9.116;2024-01-15T06:17:45;96720.19;;;3.41;56.93
13553;BME280;6847;48.830;9.116;2024-01-15T06:20:14;96693.03;;;3.17;56.75
13553;BME280;6847;48.830;9.116;2024-01-15T06:22:42;96716.66;;;3.35;56.45
13553;BME280;6847;48.830;9.116;2024-01-15T06:25:10;96674.78;;;3.04;57.21
13553;BME280;6847;48.830;9.116;2024-01-15T06:27:36;96714.25;;;3.29;56.68
13553;BME280;6847;48.830;9.116;2024-01-15T06:30:04;96525.19;;;2.15;57.12
13553;BME280;6847;48.830;9.116;2024-01-15T06:32:34;96604.53;;;2.62;56.57
13553;BME280;6847;48.830;9.116;2024-01-15T06:35:02;96692.00;;;3.23;56.77
13553;BME280;6847;48.830;9.116;2024-01-15T06:37:29;96704.34;;;3.29;57.30
13553;BME280;6847;48.830;9.116;2024-01-15T06:39:55;96654.75;;;3.07;57.15
13553;BME280;6847;48.830;9.116;2024-01-15T06:42:24;96612.13;;;2.85;56.34
13553;BME280;6847;48.830;9.116;2024-01-15T06:44:55;96434.66;;;1.71;56.87
13553;BME280;6847;48.830;9.116;2024-01-15T06:47:22;96657.78;;;3.20;56.50
13553;BME280;6847;48.830;9.116;2024-01-15T06:49:48;96688.84;;;3.31;56.68
13553;BME280;6847;48.830;9.116;2024-01-15T06:52:16;96686.19;;;3.37;56.75
13553;BME280;6847;48.830;9.116;2024-01-15T06:54:42;96690.72;;;3.36;56.60
13553;BME280;6847;48.830;9.116;2024-01-15T06:57:10;96694.72;;;3.33;56.90
13553;BME280;6847;48.830;9.116;2024-01-15T06:59:38;96706.25;;;3.39;56.64
13553;BME280;6847;48.830;9.116;2024-01-15T07:02:05;96586.38;;;2.64;56.65
13553;BME280;6847;48.830;9.116;2024-01-15T07:04:32;96494.16;;;2.09;56.76
13553;BME280;6847;48.830;9.116;2024-01-15T07:06:58;96707.06;;;3.40;56.97
13553;BME280;6847;48.830;9.116;2024-01-15T07:09:27;96696.59;;;3.33;56.21
13553;BME280;6847;48.830;9.116;2024-01-15T07:11:53;96667.91;;;3.18;56.88
13553;BME280;6847;48.830;9.116;2024-01-15T07:14:25;96489.06;;;2.02;56.88
13553;BME280;6847;48.830;9.116;2024-01-15T07:16:54;96537.50;;;2.26;56.82
13553;BME280;6847;48.830;9.116;2024-01-15T07:19:21;96501.59;;;2.07;56.23
13553;BME280;6847;48.830;9.116;2024-01-15T07:21:50;96483.66;;;1.92;57.01
13553;BME280;6847;48.830;9.116;2024-01-15T07:24:20;96629.25;;;2.89;56.70
13553;BME280;6847;48.830;9.116;2024-01-15T07:26:47;96671.09;;;3.15;56.77
13553;BME280;6847;48.830;9.116;2024-01-15T07:29:14;96534.06;;;2.31;56.54
13553;BME280;6847;48.830;9.116;2024-01-15T07:31:50;96703.34;;;3.46;56.56
13553;BME280;6847;48.830;9.116;2024-01-15T07:34:18;96620.47;;;2.93;56.92
13553;BME280;6847;48.830;9.116;2024-01-15T07:36:51;96598.75;;;2.80;57.01
13553;BME280;6847;48.830;9.116;2024-01-15T07:39:19;96554.19;;;2.43;56.69
13553;BME280;6847;48.830;9.116;2024-01-15T07:41:46;96710.81;;;3.44;57.10
13553;BME280;6847;48.830;9.116;2024-01-15T07:44:14;96619.06;;;2.81;56.38
13553;BME280;6847;48.830;9.116;2024-01-15T07:46:44;96721.06;;;3.52;56.61
13553;BME280;6847;48.830;9.116;2024-01-15T07:49:11;96676.50;;;3.25;56.26
13553;BME280;6847;48.830;9.116;2024-01-15T07:51:39;96703.94;;;3.58;56.52
13553;BME280;6847;48.830;9.116;2024-01-15T07:54:10;96552.66;;;2.52;56.68
13553;BME280;6847;48.830;9.116;2024-01-15T07:56:53;96503.66;;;2.32;56.89
13553;BME280;6847;48.830;9.116;2024-01-15T07:59:22;96702.31;;;3.57;56.02
13553;BME280;6847;48.830;9.116;2024-01-15T08:01:48;96703.94;;;3.58;56.95
13553;BME280;6847;48.830;9.116;2024-01-15T08:04:17;96584.88;;;2.83;56.50
13553;BME280;6847;48.830;9.116;2024-01-15T08:06:46;96603.59;;;2.88;57.10
13553;BME280;6847;48.830;9.116;2024-01-15T08:09:14;96574.13;;;2.78;56.80
13553;BME280;6847;48.830;9.116;2024-01-15T08:11:42;96506.06;;;2.33;56.05
13553;BME280;6847;48.830;9.116;2024-01-15T08:14:09;96660.50;;;3.35;56.23
13553;BME280;6847;48.830;9.116;2024-01-15T08:16:36;96529.19;;;2.65;56.13
13553;BME280;6847;48.830;9.116;2024-01-15T08:19:04;96691.91;;;3.60;56.64
13553;BME280;6847;48.830;9.116;2024-01-15T08:21:31;96498.56;;;2.35;56.75
13553;BME280;6847;48.830;9.116;2024-01-15T08:24:06;96688.41;;;3.55;56.47
13553;BME280;6847;48.830;9.116;2024-01-15T08:26:32;96506.63;;;2.45;56.54
13553;BME280;6847;48.830;9.116;2024-01-15T08:29:02;96634.25;;;3.27;56.80
13553;BME280;6847;48.830;9.116;2024-01-15T08:31:30;96580.13;;;3.00;56.45
13553;BME280;6847;48.830;9.116;2024-01-15T08:33:57;96621.94;;;3.26;56.22
13553;BME280;6847;48.830;9.116;2024-01-15T08:36:27;96628.44;;;3.41;55.97
13553;BME280;6847;48.830;9.116;2024-01-15T08:38:54;96551.25;;;2.97;56.00
13553;BME280;6847;48.830;9.116;2024-01-15T08:41:25;96584.75;;;3.20;55.92
13553;BME280;6847;48.830;9.116;2024-01-15T08:43:52;96510.56;;;2.80;55.56
13553;BME280;6847;48.830;9.116;2024-01-15T08:46:19;96711.06;;;4.15;56.43
13553;BME280;6847;48.830;9.116;2024-01-15T08:48:49;96693.41;;;4.08;55.82
13553;BME280;6847;48.830;9.116;2024-01-15T08:51:18;96682.94;;;4.12;55.46
13553;BME280;6847;48.830;9.116;2024-01-15T08:53:45;96585.69;;;3.61;55.58
13553;BME280;6847;48.830;9.116;2024-01-15T08:56:14;96591.84;;;3.61;56.08
13553;BME280;6847;48.830;9.116;2024-01-15T08:58:45;96714.31;;;4.42;55.90
13553;BME280;6847;48.830;9.116;2024-01-15T09:01:15;96574.97;;;3.56;55.93
13553;BME280;6847;48.830;9.116;2024-01-15T09:03:43;96475.34;;;2.98;55.86
13553;BME280;6847;48.830;9.116;2024-01-15T09:06:13;96629.09;;;3.98;55.44
13553;BME280;6847;48.830;9.116;2024-01-15T09:08:40;96618.38;;;3.93;55.42
13553;BME280;6847;48.830;9.116;2024-01-15T09:11:15;96594.56;;;3.87;55.50
13553;BME280;6847;48.830;9.116;2024-01-15T09:13:44;96600.19;;;4.00;55.17
13553;BME280;6847;48.830;9.116;2024-01-15T09:16:13;96599.66;;;4.03;55.29
13553;BME280;6847;48.830;9.116;2024-01-15T09:18:40;96464.16;;;3.21;55.29
13553;BME280;6847;48.830;9.116;2024-01-15T09:21:08;96692.88;;;4.72;55.03
13553;BME280;6847;48.830;9.116;2024-01-15T09:23:37;96528.97;;;3.69;55.73
13553;BME280;6847;48.830;9.116;2024-01-15T09:26:04;96675.19;;;4.71;55.81
13553;BME280;6847;48.830;9.116;2024-01-15T09:28:36;96585.19;;;4.15;55.19
13553;BME280;6847;48.830;9.116;2024-01-15T09:31:09;96674.13;;;4.82;55.12
13553;BME280;6847;48.830;9.116;2024-01-15T09:33:38;96515.56;;;3.84;55.49
13553;BME280;6847;48.830;9.116;2024-01-15T09:36:06;96685.38;;;4.84;55.56
13553;BME280;6847;48.830;9.116;2024-01-15T09:38:34;96524.16;;;3.91;54.72
13553;BME280;6847;48.830;9.116;2024-01-15T09:41:02;96636.06;;;4.65;55.17
13553;BME280;6847;48.830;9.116;2024-01-15T09:43:31;96707.34;;;5.02;55.44
13553;BME280;6847;48.830;9.116;2024-01-15T09:45:58;96561.63;;;4.17;55.24
13553;BME280;6847;48.830;9.116;2024-01-15T09:48:29;96645.19;;;4.79;55.11
13553;BME280;6847;48.830;9.116;2024-01-15T09:51:01;96535.38;;;4.14;55.16
13553;BME280;6847;48.830;9.116;2024-01-15T09:53:31;96693.91;;;5.17;54.97
13553;BME280;6847;48.830;9.116;2024-01-15T09:55:59;96696.34;;;5.18;55.33
13553;BME280;6847;48.830;9.116;2024-01-15T09:58:29;96499.50;;;4.04;55.33
13553;BME280;6847;48.830;9.116;2024-01-15T10:00:57;96673.50;;;5.21;54.54
13553;BME280;6847;48.830;9.116;2024-01-15T10:03:24;96680.50;;;5.17;55.41
13553;BME280;6847;48.830;9.116;2024-01-15T10:05:59;96673.00;;;5.14;55.03
13553;BME280;6847;48.830;9.116;2024-01-15T10:08:26;96676.22;;;5.16;54.75
13553;BME280;6847;48.830;9.116;2024-01-15T10:10:55;96528.94;;;4.25;54.88
13553;BME280;6847;48.830;9.116;2024-01-15T10:13:24;96624.75;;;4.94;54.85
13553;BME280;6847;48.830;9.116;2024-01-15T10:15:51;96636.00;;;5.06;54.44
13553;BME280;6847;48.830;9.116;2024-01-15T10:18:17;96532.41;;;4.35;54.96
13553;BME280;6847;48.830;9.116;2024-01-15T10:20:45;96667.38;;;5.15;55.13
13553;BME280;6847;48.830;9.116;2024-01-15T10:23:16;96661.47;;;5.13;55.22
13553;BME280;6847;48.830;9.116;2024-01-15T10:25:46;96474.34;;;3.95;54.81
13553;BME280;6847;48.830;9.116;2024-01-15T10:28:14;96486.38;;;4.08;55.19
13553;BME280;6847;48.830;9.116;2024-01-15T10:30:41;96636.53;;;5.08;55.02
13553;BME280;6847;48.830;9.116;2024-01-15T10:33:08;96463.66;;;3.90;54.63
13553;BME280;6847;48.830;9.116;2024-01-15T10:35:38;96448.66;;;3.74;55.38
13553;BME280;6847;48.830;9.116;2024-01-15T10:38:09;96535.34;;;4.39;54.73
13553;BME280;6847;48.830;9.116;2024-01-15T10:40:39;96573.91;;;4.68;54.53
13553;BME280;6847;48.830;9.116;2024-01-15T10:43:10;96619.41;;;4.94;55.14
13553;BME280;6847;48.830;9.116;2024-01-15T10:45:37;96477.53;;;4.07;54.46
13553;BME280;6847;48.830;9.116;2024-01-15T10:48:04;96545.00;;;4.50;54.91
13553;BME280;6847;48.830;9.116;2024-01-15T10:50:32;96515.53;;;4.35;54.64
13553;BME280;6847;48.830;9.116;2024-01-15T10:53:00;96383.94;;;3.52;54.67
13553;BME280;6847;48.830;9.116;2024-01-15T10:55:28;96373.75;;;3.49;54.46
13553;BME280;6847;48.830;9.116;2024-01-15T10:57:58;96463.09;;;4.08;54.63
13553;BME280;6847;48.830;9.116;2024-01-15T11:00:28;96601.66;;;5.03;54.23
13553;BME280;6847;48.830;9.116;2024-01-15T11:02:56;96574.34;;;4.96;54.72
13553;BME280;6847;48.830;9.116;2024-01-15T11:05:33;96610.53;;;5.08;54.26
13553;BME280;6847;48.830;9.116;2024-01-15T11:08:01;96575.47;;;4.79;54.61
13553;BME280;6847;48.830;9.116;2024-01-15T11:10:45;96377.50;;;3.48;54.86
13553;BME280;6847;48.830;9.116;2024-01-15T11:13:19;96613.25;;;4.83;54.65
13553;BME280;6847;48.830;9.116;2024-01-15T11:15:57;96497.38;;;3.96;55.91
13553;BME280;6847;48.830;9.116;2024-01-15T11:18:27;96606.59;;;4.55;55.31
13553;BME280;6847;48.830;9.116;2024-01-15T11:21:19;96592.66;;;4.53;55.62
13553;BME280;6847;48.830;9.116;2024-01-15T11:23:49;96543.94;;;4.05;55.57
13553;BME280;6847;48.830;9.116;2024-01-15T11:26:34;96519.88;;;3.90;56.52
13553;BME280;6847;48.830;9.116;2024-01-15T11:29:04;96584.66;;;4.23;56.15
13553;BME280;6847;48.830;9.116;2024-01-15T11:31:56;96574.47;;;4.15;56.09
13553;BME280;6847;48.830;9.116;2024-01-15T11:34:51;96590.25;;;4.31;56.41
13553;BME280;6847;48.830;9.116;2024-01-15T11:37:18;96427.78;;;3.25;56.51
13553;BME280;6847;48.830;9.116;2024-01-15T11:39:51;96485.06;;;3.65;56.26
13553;BME280;6847;48.830;9.116;2024-01-15T11:42:22;96515.84;;;3.88;57.06
13553;BME280;6847;48.830;9.116;2024-01-15T11:44:52;96571.25;;;4.13;57.15
13553;BME280;6847;48.830;9.116;2024-01-15T11:50:43;96521.75;;;3.69;57.21
13553;BME280;6847;48.830;9.116;2024-01-15T11:53:26;96591.06;;;4.12;57.62
13553;BME280;6847;48.830;9.116;2024-01-15T11:56:03;96401.53;;;2.82;57.83
13553;BME280;6847;48.830;9.116;2024-01-15T11:58:34;96434.97;;;3.00;57.33
13553;BME280;6847;48.830;9.116;2024-01-15T12:03:57;96590.00;;;3.97;57.43
13553;BME280;6847;48.830;9.116;2024-01-15T12:06:27;96585.19;;;3.99;57.36
13553;BME280;6847;48.830;9.116;2024-01-15T12:09:05;96575.28;;;3.95;58.35
13553;BME280;6847;48.830;9.116;2024-01-15T12:11:34;96541.28;;;3.80;58.25
13553;BME280;6847;48.830;9.116;2024-01-15T12:14:02;96504.84;;;3.44;58.18
13553;BME280;6847;48.830;9.116;2024-01-15T12:16:50;96487.19;;;3.38;58.55
13553;BME280;6847;48.830;9.116;2024-01-15T12:19:21;96441.38;;;3.04;57.81
13553;BME280;6847;48.830;9.116;2024-01-15T12:21:50;96598.03;;;3.97;58.09
13553;BME280;6847;48.830;9.116;2024-01-15T12:24:20;96412.22;;;2.82;58.56
13553;BME280;6847;48.830;9.116;2024-01-15T12:26:47;96485.28;;;3.28;58.98
13553;BME280;6847;48.830;9.116;2024-01-15T12:29:17;96576.06;;;3.85;59.05
13553;BME280;6847;48.830;9.116;2024-01-15T12:31:50;96597.22;;;4.02;58.78
13553;BME280;6847;48.830;9.116;2024-01-15T12:34:21;96564.84;;;3.78;58.62
13553;BME280;6847;48.830;9.116;2024-01-15T12:36:48;96436.59;;;3.01;59.15
13553;BME280;6847;48.830;9.116;2024-01-15T12:39:15;96464.94;;;3.12;58.27
13553;BME280;6847;48.830;9.116;2024-01-15T12:41:42;96421.56;;;2.84;59.15
13553;BME280;6847;48.830;9.116;2024-01-15T12:44:11;96379.78;;;2.48;58.85
13553;BME280;6847;48.830;9.116;2024-01-15T12:46:41;96521.97;;;3.32;58.96
13553;BME280;6847;48.830;9.116;2024-01-15T12:49:12;96580.06;;;3.67;59.12
13553;BME280;6847;48.830;9.116;2024-01-15T12:51:40;96609.25;;;3.79;59.80
13553;BME280;6847;48.830;9.116;2024-01-15T12:54:08;96530.75;;;3.33;59.49
13553;BME280;6847;48.830;9.116;2024-01-15T12:56:36;96564.78;;;3.53;60.22
13553;BME280;6847;48.830;9.116;2024-01-15T12:59:03;96615.69;;;3.83;60.58
13553;BME280;6847;48.830;9.116;2024-01-15T13:01:30;96477.50;;;3.01;61.51
13553;BME280;6847;48.830;9.116;2024-01-15T13:03:58;96569.88;;;3.64;61.94
13553;BME280;6847;48.830;9.116;2024-01-15T13:06:36;96620.00;;;3.89;62.79
13553;BME280;6847;48.830;9.116;2024-01-15T13:09:04;96574.44;;;3.64;62.18
13553;BME280;6847;48.830;9.116;2024-01-15T13:11:32;96631.25;;;3.96;63.17
13553;BME280;6847;48.830;9.116;2024-01-15T13:14:01;96460.88;;;2.89;63.68
13553;BME280;6847;48.830;9.116;2024-01-15T13:16:32;96552.97;;;3.44;63.79
13553;BME280;6847;48.830;9.116;2024-01-15T13:19:00;96533.72;;;3.31;63.61
13553;BME280;6847;48.830;9.116;2024-01-15T13:21:32;96632.56;;;3.94;64.58
13553;BME280;6847;48.830;9.116;2024-01-15T13:24:15;96427.66;;;2.65;64.28
13553;BME280;6847;48.830;9.116;2024-01-15T13:26:42;96540.13;;;3.35;65.08
13553;BME280;6847;48.830;9.116;2024-01-15T13:29:12;96638.22;;;3.97;65.45
13553;BME280;6847;48.830;9.116;2024-01-15T13:31:40;96646.78;;;4.04;65.55
13553;BME280;6847;48.830;9.116;2024-01-15T13:34:07;96591.06;;;3.71;65.26
13553;BME280;6847;48.830;9.116;2024-01-15T13:36:38;96643.06;;;4.11;65.56
13553;BME280;6847;48.830;9.116;2024-01-15T13:39:06;96573.38;;;3.60;65.94